Portada
METAR-TAF:

METAR-TAF

Aeroports :

Naval Auxiliary Landing Field Fentress

Chesapeake, Virgínia, Estats Units d'Amèrica

latitud: 36-42-03N, longitud: 076-07-42W, altitud: 3 m

Observació

L'informe es va fer fa 1 hora i 2 minuts, a les 12:56 UTC
Vent calma
Temperatura 3°C
Humitat 70%
Pressió 1026 hPa
Visibilitat: 16.1 km
Cel clar

METAR: KNFE 231256Z AUTO 00000KT 10SM CLR 03/M02 A3031 RMK AO2 SLP267 T00331022

Hora: 08:58 (13:58 UTC)


TAF: manca

Observacions i pronòstics meteorològics de més de 4000 aeroports (METAR i TAF).

Les estacions disponibles són els punts grocs i vermells al mapa.

Posi el ratolí al punt desitjat per veure el nom de l'estació.

Feu clic per veure les observacions i els pronòstics meteorològics.

Per canviar el mapa: feu clic els botons verds amb una creu de color negre per apropar; al botó verd amb un guió per allunyar la imatge; o en les fletxes verdes per a mapes adjacents.


METAR-TAF: